Time;durP1;ratioP1;P1;durP2;ratioP2;P2;SDS_P1;SDS_P2;PMS_P1;PMS_P2;Temp;Humidity;BMP_temperature;BMP_pressure;BME280_temperature;BME280_humidity;BME280_pressure;Samples;Min_cycle;Max_cycle;Signal;HPM_P1;HPM_P2
2022/12/27 00:02:19;;;;;;;51.10;36.85;;;12.90;1.00;;;;;;5030779;28;20034;-72
2022/12/27 00:04:45;;;;;;;53.33;39.55;;;12.90;1.00;;;;;;5031446;28;20487;-72
2022/12/27 00:07:10;;;;;;;52.33;37.40;;;12.80;1.00;;;;;;5030499;28;20025;-72
2022/12/27 00:09:36;;;;;;;52.60;39.00;;;12.70;1.00;;;;;;5031063;28;20025;-72
2022/12/27 00:12:02;;;;;;;50.28;36.60;;;12.70;1.00;;;;;;5022863;28;20072;-72
2022/12/27 00:14:27;;;;;;;47.95;35.55;;;12.70;1.00;;;;;;5029309;28;20523;-72
2022/12/27 00:16:53;;;;;;;51.63;38.22;;;12.70;1.00;;;;;;5028722;28;20113;-72
2022/12/27 00:19:19;;;;;;;47.90;35.90;;;12.70;1.00;;;;;;5030203;28;20029;-72
2022/12/27 00:21:44;;;;;;;51.38;37.28;;;12.60;1.00;;;;;;5031911;28;20049;-72
2022/12/27 00:24:10;;;;;;;49.30;36.28;;;12.70;1.00;;;;;;5031504;28;20482;-72
2022/12/27 00:26:38;;;;;;;60.40;41.72;;;12.60;1.00;;;;;;5032040;28;20038;-72
2022/12/27 00:29:04;;;;;;;52.05;37.97;;;12.60;1.00;;;;;;5035217;28;20231;-72
2022/12/27 00:31:30;;;;;;;50.03;37.15;;;12.60;1.00;;;;;;5030077;28;20124;-71
2022/12/27 00:33:58;;;;;;;50.38;39.08;;;12.50;1.00;;;;;;5018118;28;20044;-72
2022/12/27 00:36:26;;;;;;;48.35;35.92;;;12.60;1.00;;;;;;5031545;28;20094;-72
2022/12/27 00:38:52;;;;;;;53.00;38.55;;;12.50;1.00;;;;;;5031714;28;20476;-73
2022/12/27 00:41:18;;;;;;;45.75;36.58;;;12.40;1.00;;;;;;5030064;28;20032;-72
2022/12/27 00:43:44;;;;;;;48.78;35.55;;;12.30;1.00;;;;;;5031463;28;20026;-72
2022/12/27 00:46:11;;;;;;;49.60;36.45;;;12.40;1.00;;;;;;5030299;28;20175;-72
2022/12/27 00:48:37;;;;;;;50.42;36.45;;;12.20;1.00;;;;;;5031394;28;20041;-72
2022/12/27 00:51:18;;;;;;;46.25;36.13;;;12.30;1.00;;;;;;5022022;28;20182;-72
2022/12/27 00:53:44;;;;;;;54.33;36.75;;;12.30;1.00;;;;;;5017612;28;20029;-71
2022/12/27 00:56:20;;;;;;;52.22;37.58;;;12.30;1.00;;;;;;5020842;28;20113;-72
2022/12/27 00:58:46;;;;;;;52.50;37.63;;;12.20;1.00;;;;;;5018540;28;20045;-72
2022/12/27 01:01:20;;;;;;;46.97;35.15;;;12.00;1.00;;;;;;5031527;28;20084;-72
2022/12/27 01:04:08;;;;;;;47.35;35.55;;;12.10;1.00;;;;;;5031017;28;20104;-71
2022/12/27 01:06:34;;;;;;;46.85;35.22;;;12.30;1.00;;;;;;5031657;28;20025;-72
2022/12/27 01:09:01;;;;;;;48.88;34.75;;;12.30;1.00;;;;;;5033554;28;20633;-72
2022/12/27 01:11:28;;;;;;;47.38;36.00;;;12.30;1.00;;;;;;5032403;28;20029;-72
2022/12/27 01:13:58;;;;;;;46.17;33.97;;;12.20;1.00;;;;;;5033629;28;20036;-72
2022/12/27 01:16:25;;;;;;;42.30;33.50;;;12.20;1.00;;;;;;5033489;28;20025;-72
2022/12/27 01:18:51;;;;;;;46.05;34.65;;;12.30;1.00;;;;;;5034690;28;20438;-72
2022/12/27 01:21:19;;;;;;;50.30;36.20;;;12.30;1.00;;;;;;5034720;28;20021;-72
2022/12/27 01:23:45;;;;;;;45.05;34.20;;;12.00;1.00;;;;;;5034285;28;20036;-72
2022/12/27 01:26:13;;;;;;;46.53;34.90;;;12.10;1.00;;;;;;5033743;28;20021;-72
2022/12/27 01:28:39;;;;;;;44.45;33.83;;;12.10;1.00;;;;;;5037805;28;20029;-72
2022/12/27 01:31:18;;;;;;;50.17;37.15;;;12.00;1.00;;;;;;5034680;28;20053;-72
2022/12/27 01:33:44;;;;;;;46.05;33.85;;;12.10;1.00;;;;;;5034612;28;20521;-71
2022/12/27 01:36:14;;;;;;;46.08;33.67;;;12.10;1.00;;;;;;5035110;28;20018;-72
2022/12/27 01:38:43;;;;;;;49.92;36.97;;;12.00;1.00;;;;;;5033328;28;20116;-72
2022/12/27 01:44:42;;;;;;;49.30;37.10;;;12.00;1.00;;;;;;5026476;28;20570;-72
2022/12/27 01:47:16;;;;;;;47.58;35.28;;;11.90;1.00;;;;;;5034604;28;20108;-72
2022/12/27 01:59:48;;;;;;;48.20;36.15;;;11.90;1.00;;;;;;5023426;28;20049;-72
2022/12/27 02:02:14;;;;;;;49.58;36.67;;;11.90;1.00;;;;;;5024148;28;20088;-71
2022/12/27 02:04:40;;;;;;;44.78;34.58;;;11.80;1.00;;;;;;5028589;28;20045;-72
2022/12/27 02:07:06;;;;;;;50.70;34.88;;;11.80;1.00;;;;;;5020210;28;20026;-72
2022/12/27 02:09:53;;;;;;;49.13;34.60;;;11.90;1.00;;;;;;5030122;28;20064;-71
2022/12/27 02:12:20;;;;;;;45.08;33.30;;;11.80;1.00;;;;;;5034292;28;20045;-71
2022/12/27 02:18:08;;;;;;;44.55;33.05;;;11.80;1.00;;;;;;5026546;28;20052;-72
2022/12/27 02:21:18;;;;;;;46.00;32.22;;;11.80;1.00;;;;;;5033541;28;20018;-71
2022/12/27 02:24:12;;;;;;;46.22;33.83;;;11.70;1.00;;;;;;5014988;28;20057;-72
2022/12/27 02:27:02;;;;;;;44.63;34.70;;;11.80;1.00;;;;;;5034260;28;20034;-72
2022/12/27 02:29:36;;;;;;;45.63;34.22;;;11.70;1.00;;;;;;5030988;28;20572;-72
2022/12/27 02:32:10;;;;;;;45.95;34.63;;;11.80;1.00;;;;;;5031812;28;20091;-72
2022/12/27 02:34:50;;;;;;;46.53;33.83;;;11.80;1.00;;;;;;5033807;28;20034;-71
2022/12/27 02:37:20;;;;;;;45.20;33.72;;;11.80;1.00;;;;;;5033044;28;20030;-71
2022/12/27 02:39:47;;;;;;;43.25;32.95;;;11.70;1.00;;;;;;5032923;28;20025;-71
2022/12/27 02:53:58;;;;;;;36.42;29.40;;;11.50;1.00;;;;;;5030580;28;20039;-71
2022/12/27 02:59:37;;;;;;;39.72;28.75;;;11.50;1.00;;;;;;5020683;28;20574;-71
2022/12/27 03:05:21;;;;;;;37.70;29.77;;;11.50;1.00;;;;;;5030997;28;20036;-70
2022/12/27 03:08:35;;;;;;;39.80;29.67;;;11.50;1.00;;;;;;5032974;28;20033;-71
2022/12/27 03:16:56;;;;;;;36.88;29.95;;;11.50;1.00;;;;;;5022071;28;20079;-72
2022/12/27 03:33:11;;;;;;;34.22;29.10;;;11.40;1.00;;;;;;5032740;28;20059;-71
2022/12/27 03:33:24;;;;;;;37.50;28.60;;;11.30;1.00;;;;;;5030311;28;20036;-72
2022/12/27 03:38:45;;;;;;;31.40;26.60;;;11.30;1.00;;;;;;5027867;28;20527;-71
2022/12/27 03:44:22;;;;;;;36.35;27.10;;;11.40;1.00;;;;;;5022368;28;20048;-72
2022/12/27 03:50:33;;;;;;;34.85;27.92;;;11.40;1.00;;;;;;5023760;28;20076;-71
2022/12/27 03:53:13;;;;;;;36.33;30.55;;;11.20;1.00;;;;;;5032062;28;20410;-71
2022/12/27 03:55:38;;;;;;;31.95;27.92;;;11.20;1.00;;;;;;5030529;28;20356;-71
2022/12/27 03:58:04;;;;;;;34.47;27.45;;;11.20;1.00;;;;;;5032139;28;20087;-71
2022/12/27 04:00:39;;;;;;;35.65;29.55;;;11.30;1.00;;;;;;5031718;28;20041;-71
2022/12/27 04:03:05;;;;;;;32.88;28.35;;;11.30;1.00;;;;;;5032134;28;20025;-71
2022/12/27 04:05:30;;;;;;;31.23;27.85;;;11.30;1.00;;;;;;5018842;28;20025;-71
2022/12/27 04:35:17;;;;;;;28.08;25.10;;;11.10;1.00;;;;;;5031810;28;20060;-71
2022/12/27 04:37:42;;;;;;;28.63;24.42;;;11.10;1.00;;;;;;5031754;28;20475;-71
2022/12/27 04:56:41;;;;;;;28.73;24.33;;;11.00;1.00;;;;;;5028912;28;20037;-71
2022/12/27 05:02:03;;;;;;;28.45;24.90;;;10.90;1.00;;;;;;5026543;28;20499;-71
2022/12/27 05:04:34;;;;;;;28.23;24.77;;;11.00;1.00;;;;;;5035001;28;20383;-71
2022/12/27 05:13:58;;;;;;;30.05;25.60;;;11.00;1.00;;;;;;5025419;28;20026;-71
2022/12/27 05:15:16;;;;;;;25.75;21.02;;;10.90;1.00;;;;;;5030017;28;20044;-71
2022/12/27 05:17:42;;;;;;;31.30;25.52;;;10.90;1.00;;;;;;5032500;28;20041;-71
2022/12/27 05:20:08;;;;;;;28.13;23.73;;;10.90;1.00;;;;;;5009435;28;20030;-71
2022/12/27 05:25:33;;;;;;;27.48;21.90;;;10.90;1.00;;;;;;5033987;28;20040;-71
2022/12/27 05:34:49;;;;;;;24.40;21.10;;;10.80;1.00;;;;;;5002734;28;20553;-71
2022/12/27 05:37:15;;;;;;;25.33;21.10;;;10.80;1.00;;;;;;5034743;28;20091;-71
2022/12/27 05:39:41;;;;;;;25.00;21.92;;;10.70;1.00;;;;;;5026115;28;20017;-71
2022/12/27 05:42:07;;;;;;;24.35;20.90;;;10.70;1.00;;;;;;5034767;28;20387;-71
2022/12/27 05:44:32;;;;;;;24.15;21.50;;;10.80;1.00;;;;;;5034238;28;20029;-71
2022/12/27 05:46:58;;;;;;;25.13;21.98;;;10.80;1.00;;;;;;5034683;28;20026;-71
2022/12/27 05:49:23;;;;;;;26.20;22.38;;;10.80;1.00;;;;;;5032601;28;20026;-71
2022/12/27 05:51:49;;;;;;;27.30;22.77;;;10.70;1.00;;;;;;5034513;28;20053;-71
2022/12/27 05:54:15;;;;;;;24.70;22.05;;;10.80;1.00;;;;;;5033191;28;20057;-71
2022/12/27 05:56:41;;;;;;;25.63;22.30;;;10.70;1.00;;;;;;5034204;28;20029;-71
2022/12/27 05:59:06;;;;;;;24.15;21.60;;;10.70;1.00;;;;;;5034136;28;20042;-71
2022/12/27 06:01:33;;;;;;;24.95;20.75;;;10.70;1.00;;;;;;5033711;28;20029;-71
2022/12/27 06:03:58;;;;;;;25.55;21.52;;;10.80;1.00;;;;;;5034233;28;20061;-71
2022/12/27 06:06:24;;;;;;;25.27;22.30;;;10.70;1.00;;;;;;5027646;28;20079;-71
2022/12/27 06:08:53;;;;;;;26.98;22.05;;;10.80;1.00;;;;;;5032696;28;20025;-71
2022/12/27 06:11:19;;;;;;;24.73;21.13;;;10.80;1.00;;;;;;5033943;28;20116;-71
2022/12/27 06:13:51;;;;;;;26.33;21.75;;;10.80;1.00;;;;;;5032633;28;20159;-71
2022/12/27 06:16:18;;;;;;;26.20;21.13;;;10.80;1.00;;;;;;5047049;28;20155;-71
2022/12/27 06:18:43;;;;;;;26.98;22.08;;;10.70;1.00;;;;;;5033349;28;20041;-71
2022/12/27 06:21:20;;;;;;;22.67;19.90;;;10.70;1.00;;;;;;5030791;28;20128;-71
2022/12/27 06:24:10;;;;;;;24.27;20.23;;;10.70;1.00;;;;;;5033820;28;20086;-71
2022/12/27 06:26:36;;;;;;;27.08;20.90;;;10.60;1.00;;;;;;5033846;28;20443;-71
2022/12/27 06:29:01;;;;;;;21.77;18.55;;;10.60;1.00;;;;;;5033389;28;20053;-71
2022/12/27 06:31:27;;;;;;;23.58;20.73;;;10.50;1.00;;;;;;5021779;28;20017;-71
2022/12/27 06:33:53;;;;;;;22.10;19.33;;;10.60;1.00;;;;;;5030778;28;20044;-71
2022/12/27 06:36:21;;;;;;;25.85;20.73;;;10.50;1.00;;;;;;5033677;28;20049;-71
2022/12/27 06:38:48;;;;;;;23.15;19.40;;;10.60;1.00;;;;;;5029547;28;20495;-71
2022/12/27 06:41:19;;;;;;;25.95;20.08;;;10.60;1.00;;;;;;5030242;28;20072;-71
2022/12/27 06:43:46;;;;;;;21.70;19.08;;;10.60;1.00;;;;;;5028222;28;20120;-71
2022/12/27 06:46:15;;;;;;;22.45;19.10;;;10.60;1.00;;;;;;5029207;28;20478;-71
2022/12/27 06:48:40;;;;;;;23.33;19.63;;;10.60;1.00;;;;;;5031715;28;20525;-71
2022/12/27 06:51:09;;;;;;;22.23;18.75;;;10.60;1.00;;;;;;5033389;28;20120;-71
2022/12/27 06:53:35;;;;;;;25.05;20.45;;;10.60;1.00;;;;;;5033285;28;20028;-71
2022/12/27 06:56:09;;;;;;;24.67;19.67;;;10.60;1.00;;;;;;5027575;28;20498;-71
2022/12/27 06:58:35;;;;;;;23.20;17.70;;;10.60;1.00;;;;;;5033216;28;20479;-71
2022/12/27 07:01:11;;;;;;;21.55;19.08;;;10.60;1.00;;;;;;5019621;28;20041;-71
2022/12/27 07:03:37;;;;;;;24.05;19.15;;;10.60;1.00;;;;;;5032567;28;20029;-71
2022/12/27 07:06:05;;;;;;;23.85;19.35;;;10.50;1.00;;;;;;5031159;28;20026;-71
2022/12/27 07:08:31;;;;;;;22.05;19.70;;;10.60;1.00;;;;;;5030603;28;20049;-71
2022/12/27 07:11:06;;;;;;;24.88;19.50;;;10.60;1.00;;;;;;5030521;28;20025;-71
2022/12/27 07:13:44;;;;;;;24.52;20.25;;;10.60;1.00;;;;;;5040240;28;20025;-71
2022/12/27 07:16:12;;;;;;;26.58;21.23;;;10.60;1.00;;;;;;5031720;28;20434;-71
2022/12/27 07:18:38;;;;;;;24.38;19.50;;;10.50;1.00;;;;;;5032594;28;20040;-71
2022/12/27 07:21:05;;;;;;;24.58;19.42;;;10.50;1.00;;;;;;5020803;28;20117;-71
2022/12/27 07:23:32;;;;;;;25.00;20.20;;;10.60;1.00;;;;;;5032443;28;20025;-71
2022/12/27 07:26:05;;;;;;;21.08;18.88;;;10.50;1.00;;;;;;5023322;28;20033;-71
2022/12/27 07:28:31;;;;;;;20.67;18.17;;;10.50;1.00;;;;;;5031837;28;20535;-71
2022/12/27 07:30:57;;;;;;;22.95;20.17;;;10.50;1.00;;;;;;5032341;28;20064;-71
2022/12/27 07:33:23;;;;;;;23.05;20.60;;;10.50;1.00;;;;;;5032386;28;20049;-71
2022/12/27 07:35:49;;;;;;;27.05;20.58;;;10.50;1.00;;;;;;5032231;28;20049;-71
2022/12/27 07:38:14;;;;;;;23.73;21.10;;;10.50;1.00;;;;;;5032286;28;20458;-70
2022/12/27 07:40:40;;;;;;;24.63;19.70;;;10.50;1.00;;;;;;5024713;28;20100;-71
2022/12/27 07:43:05;;;;;;;24.85;20.17;;;10.50;1.00;;;;;;5032135;28;20083;-71
2022/12/27 07:45:31;;;;;;;24.40;18.77;;;10.40;1.00;;;;;;5032357;28;20113;-71
2022/12/27 07:47:57;;;;;;;28.67;21.25;;;10.40;1.00;;;;;;5031943;28;20030;-71
2022/12/27 07:50:23;;;;;;;24.20;19.60;;;10.50;1.00;;;;;;5032072;28;20031;-72
2022/12/27 07:52:49;;;;;;;21.58;18.40;;;10.50;1.00;;;;;;5031945;28;20052;-71
2022/12/27 07:55:15;;;;;;;25.08;20.10;;;10.60;1.00;;;;;;5032629;28;20030;-72
2022/12/27 07:57:40;;;;;;;28.05;21.13;;;10.60;1.00;;;;;;5030689;28;20390;-71
2022/12/27 08:00:09;;;;;;;23.88;19.70;;;10.50;1.00;;;;;;5031339;28;20029;-72
2022/12/27 08:02:35;;;;;;;24.10;19.20;;;10.60;1.00;;;;;;5032197;28;20040;-71
2022/12/27 08:05:01;;;;;;;22.45;19.42;;;10.50;1.00;;;;;;5030235;28;20026;-72
2022/12/27 08:07:26;;;;;;;21.90;19.05;;;10.50;1.00;;;;;;5031640;28;20380;-71
2022/12/27 08:09:52;;;;;;;20.40;17.95;;;10.50;1.00;;;;;;5031986;28;20036;-71
2022/12/27 08:12:17;;;;;;;24.70;20.27;;;10.50;1.00;;;;;;5031295;28;20021;-71
2022/12/27 08:14:43;;;;;;;22.92;19.00;;;10.50;1.00;;;;;;5025515;28;20037;-71
2022/12/27 08:17:16;;;;;;;26.38;19.80;;;10.50;1.00;;;;;;5031504;28;20037;-71
2022/12/27 08:19:41;;;;;;;23.30;18.77;;;10.40;1.00;;;;;;5022915;28;20439;-72
2022/12/27 08:22:08;;;;;;;21.10;18.77;;;10.50;1.00;;;;;;5031741;28;20105;-72
2022/12/27 08:24:34;;;;;;;20.77;18.63;;;10.60;1.00;;;;;;5011138;28;20032;-71
2022/12/27 08:26:59;;;;;;;20.25;18.05;;;10.60;1.00;;;;;;5027169;28;20034;-72
2022/12/27 08:29:25;;;;;;;22.92;18.75;;;10.60;1.00;;;;;;5030512;28;20025;-71
2022/12/27 08:31:51;;;;;;;21.27;18.60;;;10.60;1.00;;;;;;5032348;28;20086;-71
2022/12/27 08:34:17;;;;;;;24.38;20.48;;;10.60;1.00;;;;;;5031185;28;20455;-71
2022/12/27 08:36:42;;;;;;;24.15;19.38;;;10.60;1.00;;;;;;5021574;28;20091;-71
2022/12/27 08:39:08;;;;;;;22.15;19.15;;;10.50;1.00;;;;;;5030265;28;20501;-71
2022/12/27 08:41:34;;;;;;;21.60;18.55;;;10.60;1.00;;;;;;5020208;28;20036;-71
2022/12/27 08:43:59;;;;;;;22.85;19.60;;;10.60;1.00;;;;;;5015012;28;20403;-71
2022/12/27 08:46:25;;;;;;;21.35;18.42;;;10.60;1.00;;;;;;5020646;28;20025;-71
2022/12/27 08:48:51;;;;;;;24.58;20.23;;;10.60;1.00;;;;;;5030207;28;20467;-71
2022/12/27 08:51:17;;;;;;;21.80;19.48;;;10.70;1.00;;;;;;5031644;28;20022;-72
2022/12/27 08:53:43;;;;;;;23.15;20.27;;;10.60;1.00;;;;;;5031758;28;20030;-70
2022/12/27 08:56:09;;;;;;;22.05;19.33;;;10.60;1.00;;;;;;5031546;28;20387;-70
2022/12/27 08:58:35;;;;;;;21.70;19.38;;;10.60;1.00;;;;;;5031459;28;20033;-71
2022/12/27 09:01:05;;;;;;;26.80;19.45;;;10.70;1.00;;;;;;5031008;28;20064;-71
2022/12/27 09:03:30;;;;;;;25.05;20.20;;;10.70;1.00;;;;;;5031625;28;20076;-71
2022/12/27 09:06:07;;;;;;;25.33;19.08;;;10.80;1.00;;;;;;5031099;28;20467;-71
2022/12/27 09:08:32;;;;;;;23.38;20.63;;;10.80;1.00;;;;;;5031452;28;20074;-71
2022/12/27 09:11:13;;;;;;;24.45;20.70;;;10.80;1.00;;;;;;5030234;28;20030;-71
2022/12/27 09:13:41;;;;;;;21.80;19.60;;;10.80;1.00;;;;;;5020335;28;20053;-71
2022/12/27 09:16:09;;;;;;;26.17;20.55;;;10.80;1.00;;;;;;5031551;28;20040;-71
2022/12/27 09:18:39;;;;;;;25.13;20.70;;;10.90;1.00;;;;;;5028241;28;20539;-71
2022/12/27 09:21:11;;;;;;;24.50;20.75;;;10.90;1.00;;;;;;5031469;28;20485;-71
2022/12/27 09:23:37;;;;;;;23.83;20.77;;;10.90;1.00;;;;;;5029305;28;20057;-71
2022/12/27 09:26:05;;;;;;;26.40;20.58;;;10.90;1.00;;;;;;5031534;28;20079;-71
2022/12/27 09:28:31;;;;;;;23.38;20.08;;;11.00;1.00;;;;;;5029727;28;20030;-72
2022/12/27 09:37:53;;;;;;;30.08;25.05;;;11.00;1.00;;;;;;5002736;28;20167;-71
2022/12/27 09:40:20;;;;;;;26.50;22.13;;;11.10;1.00;;;;;;5028800;28;20045;-71
2022/12/27 09:42:54;;;;;;;24.00;20.90;;;11.00;1.00;;;;;;5033199;28;20028;-71
2022/12/27 09:45:27;;;;;;;25.30;20.02;;;11.10;1.00;;;;;;5027601;28;20103;-71
2022/12/27 09:48:01;;;;;;;22.10;19.70;;;11.10;1.00;;;;;;5032591;28;20391;-71
2022/12/27 09:50:34;;;;;;;23.50;20.35;;;11.10;1.00;;;;;;5028351;28;20029;-72
2022/12/27 09:56:26;;;;;;;20.90;18.70;;;11.20;1.00;;;;;;5025119;28;20091;-71
2022/12/27 09:58:56;;;;;;;21.23;18.95;;;11.30;1.00;;;;;;5034476;28;20094;-71
2022/12/27 10:01:25;;;;;;;23.42;20.83;;;11.30;1.00;;;;;;5025135;28;20052;-71
2022/12/27 10:03:51;;;;;;;22.58;19.85;;;11.30;1.00;;;;;;5033432;28;20022;-71
2022/12/27 10:06:47;;;;;;;21.58;19.00;;;11.30;1.00;;;;;;5025803;28;20464;-71
2022/12/27 10:09:54;;;;;;;24.58;19.83;;;11.40;1.00;;;;;;5026161;28;20033;-71
2022/12/27 10:12:44;;;;;;;22.00;17.75;;;11.40;1.00;;;;;;5034165;28;20365;-71
2022/12/27 10:15:45;;;;;;;21.40;17.02;;;11.40;1.00;;;;;;5033124;28;20144;-71
2022/12/27 10:18:35;;;;;;;22.23;18.13;;;11.40;1.00;;;;;;5030062;28;20125;-71
2022/12/27 10:21:21;;;;;;;21.70;17.42;;;11.50;1.00;;;;;;5025300;28;20033;-71
2022/12/27 10:23:57;;;;;;;21.27;17.73;;;11.50;1.00;;;;;;5032390;28;20027;-67
2022/12/27 10:26:23;;;;;;;20.13;17.80;;;11.50;1.00;;;;;;5029955;28;20128;-68
2022/12/27 10:28:52;;;;;;;22.70;17.67;;;11.60;1.00;;;;;;5033711;28;20029;-65
2022/12/27 10:31:20;;;;;;;19.30;17.25;;;11.60;1.00;;;;;;5029023;28;20061;-64
2022/12/27 10:33:48;;;;;;;22.77;17.00;;;11.60;1.00;;;;;;5033744;28;20112;-64
2022/12/27 10:36:18;;;;;;;19.52;17.17;;;11.60;1.00;;;;;;5025037;28;20034;-64
2022/12/27 10:38:46;;;;;;;18.98;16.02;;;11.60;1.00;;;;;;5033270;28;20145;-64
2022/12/27 10:41:33;;;;;;;19.55;17.40;;;11.70;1.00;;;;;;5027436;28;20068;-64
2022/12/27 10:43:59;;;;;;;20.38;17.70;;;11.70;1.00;;;;;;5033433;28;20553;-64
2022/12/27 10:46:30;;;;;;;19.58;17.48;;;11.80;1.00;;;;;;5033632;28;20117;-64
2022/12/27 10:49:06;;;;;;;22.17;19.10;;;11.80;1.00;;;;;;5028083;28;20045;-64
2022/12/27 10:51:38;;;;;;;25.15;20.23;;;11.80;1.00;;;;;;5033231;28;20055;-64
2022/12/27 10:54:15;;;;;;;21.45;17.90;;;11.80;1.00;;;;;;5031442;28;20080;-64
2022/12/27 10:56:43;;;;;;;22.75;18.17;;;11.80;1.00;;;;;;5033360;28;20021;-64
2022/12/27 10:59:16;;;;;;;19.42;17.15;;;11.90;1.00;;;;;;5032669;28;20029;-64
2022/12/27 11:02:03;;;;;;;24.80;17.83;;;11.90;1.00;;;;;;5031407;28;20029;-64
2022/12/27 11:04:30;;;;;;;22.35;18.60;;;11.80;1.00;;;;;;5029077;28;20458;-64
2022/12/27 11:06:58;;;;;;;19.27;17.27;;;11.90;1.00;;;;;;5031692;28;20120;-64
2022/12/27 11:09:44;;;;;;;20.40;15.93;;;12.00;1.00;;;;;;5029936;28;20470;-64
2022/12/27 11:12:28;;;;;;;;;;;12.00;1.00;;;;;;5034507;28;20116;-64
2022/12/27 11:14:56;;;;;;;23.08;17.92;;;12.00;1.00;;;;;;5031528;28;20004;-64
2022/12/27 11:17:34;;;;;;;18.70;16.80;;;12.00;1.00;;;;;;5028470;28;20041;-64
2022/12/27 11:20:11;;;;;;;20.02;17.48;;;11.90;1.00;;;;;;5032398;28;20396;-64
2022/12/27 11:22:51;;;;;;;19.20;16.67;;;12.00;1.00;;;;;;5032645;28;20411;-64
2022/12/27 11:25:17;;;;;;;20.17;17.25;;;12.10;1.00;;;;;;5030913;28;20025;-64
2022/12/27 11:27:47;;;;;;;18.35;16.30;;;12.20;1.00;;;;;;5032707;28;20053;-64
2022/12/27 11:30:24;;;;;;;19.13;16.80;;;12.20;1.00;;;;;;5026372;28;20026;-64
2022/12/27 11:32:50;;;;;;;20.10;18.02;;;12.20;1.00;;;;;;5032533;28;20154;-64
2022/12/27 11:35:20;;;;;;;22.70;17.00;;;12.20;1.00;;;;;;5023300;28;20061;-64
2022/12/27 11:37:47;;;;;;;18.83;16.67;;;12.20;1.00;;;;;;5029041;28;20124;-63
2022/12/27 11:40:33;;;;;;;18.92;16.27;;;12.30;1.00;;;;;;5032443;28;20036;-64
2022/12/27 11:43:14;;;;;;;20.77;16.40;;;12.30;1.00;;;;;;5032264;28;20194;-66
2022/12/27 11:45:45;;;;;;;18.15;16.10;;;12.30;1.00;;;;;;5030121;28;20056;-64
2022/12/27 11:48:28;;;;;;;20.92;16.42;;;12.40;1.00;;;;;;5032299;28;20021;-61
2022/12/27 11:51:14;;;;;;;18.27;16.13;;;12.30;1.00;;;;;;5031588;28;20104;-61
2022/12/27 11:53:39;;;;;;;20.20;16.60;;;12.40;1.00;;;;;;5031703;28;20681;-61
2022/12/27 11:56:26;;;;;;;20.20;17.83;;;12.40;1.00;;;;;;5021308;28;20143;-61
2022/12/27 11:59:24;;;;;;;21.58;16.45;;;12.40;1.00;;;;;;5030263;28;20124;-61
2022/12/27 12:02:21;;;;;;;19.38;16.80;;;12.50;1.00;;;;;;5018210;28;20056;-61
2022/12/27 12:04:55;;;;;;;18.80;16.33;;;12.50;1.00;;;;;;5029042;28;20029;-61
2022/12/27 12:07:45;;;;;;;18.40;16.15;;;12.50;1.00;;;;;;5032016;28;20083;-60
2022/12/27 12:10:29;;;;;;;18.83;15.40;;;12.60;1.00;;;;;;5031551;28;20025;-61
2022/12/27 12:13:07;;;;;;;20.67;15.37;;;12.60;1.00;;;;;;5032070;28;20109;-61
2022/12/27 12:15:47;;;;;;;17.48;14.88;;;12.60;1.00;;;;;;5017709;28;20390;-61
2022/12/27 12:18:44;;;;;;;18.20;15.20;;;12.60;1.00;;;;;;5032061;28;20356;-61
2022/12/27 12:21:22;;;;;;;13.98;12.45;;;12.60;1.00;;;;;;5026068;28;20148;-61
2022/12/27 12:24:06;;;;;;;13.98;12.13;;;12.60;1.00;;;;;;5029278;28;20032;-61
2022/12/27 12:26:52;;;;;;;12.95;11.38;;;12.60;1.00;;;;;;5031406;28;20429;-61
2022/12/27 12:29:26;;;;;;;15.23;13.18;;;12.60;1.00;;;;;;5028064;28;20018;-61
2022/12/27 12:32:04;;;;;;;13.73;12.30;;;12.70;1.00;;;;;;5024655;28;20033;-61
2022/12/27 12:35:02;;;;;;;14.65;12.70;;;12.70;1.00;;;;;;5019623;28;20036;-61
2022/12/27 12:37:54;;;;;;;15.30;13.07;;;12.70;1.00;;;;;;5030056;28;20558;-61
2022/12/27 12:40:22;;;;;;;18.67;13.57;;;12.70;1.00;;;;;;5023112;28;20056;-60
2022/12/27 12:43:18;;;;;;;16.50;13.75;;;12.80;1.00;;;;;;5031408;28;20052;-61
2022/12/27 12:46:14;;;;;;;13.50;12.10;;;12.80;1.00;;;;;;5023720;28;20037;-60
2022/12/27 12:49:29;;;;;;;19.70;14.75;;;12.80;1.00;;;;;;5030095;28;20037;-61
2022/12/27 12:51:55;;;;;;;17.90;14.57;;;12.90;1.00;;;;;;5007854;28;20125;-61
2022/12/27 12:54:46;;;;;;;14.30;12.32;;;12.90;1.00;;;;;;5007931;28;20037;-60
2022/12/27 12:57:25;;;;;;;14.82;12.48;;;12.90;1.00;;;;;;5011017;28;20030;-61
2022/12/27 13:00:08;;;;;;;14.30;12.00;;;12.90;1.00;;;;;;5029705;28;20084;-60
2022/12/27 13:02:54;;;;;;;15.05;13.10;;;12.90;1.00;;;;;;5019652;28;20014;-60
2022/12/27 13:05:37;;;;;;;16.92;12.90;;;12.90;1.00;;;;;;5025793;28;20021;-61
2022/12/27 13:08:24;;;;;;;16.92;12.45;;;13.00;1.00;;;;;;5034947;28;20022;-60
2022/12/27 13:11:02;;;;;;;16.10;12.02;;;13.00;1.00;;;;;;5033341;28;20065;-61
2022/12/27 13:13:33;;;;;;;12.40;10.63;;;13.00;1.00;;;;;;5033573;28;20013;-61
2022/12/27 13:16:20;;;;;;;12.93;9.80;;;13.00;1.00;;;;;;5034564;28;20104;-61
2022/12/27 13:19:00;;;;;;;10.43;9.32;;;13.00;1.00;;;;;;5034204;28;20060;-61
2022/12/27 13:22:02;;;;;;;13.80;9.52;;;13.00;1.00;;;;;;5046638;28;20036;-61
2022/12/27 13:24:53;;;;;;;11.10;8.57;;;13.10;1.00;;;;;;5023880;28;20032;-61
2022/12/27 13:27:39;;;;;;;10.18;8.90;;;13.10;1.00;;;;;;5033695;28;20081;-60
2022/12/27 13:30:21;;;;;;;7.68;6.88;;;13.10;1.00;;;;;;5034464;28;20036;-61
2022/12/27 13:33:29;;;;;;;8.65;6.85;;;13.10;1.00;;;;;;5021509;28;20029;-61
2022/12/27 13:36:06;;;;;;;7.07;5.72;;;13.10;1.00;;;;;;5034322;28;20029;-61
2022/12/27 13:38:43;;;;;;;9.30;5.93;;;13.20;1.00;;;;;;5026847;28;20045;-61
2022/12/27 13:41:31;;;;;;;8.35;6.32;;;13.20;1.00;;;;;;5021483;28;20025;-60
2022/12/27 13:44:08;;;;;;;9.00;6.63;;;13.20;1.00;;;;;;5025842;28;20034;-61
2022/12/27 13:46:52;;;;;;;7.07;6.05;;;13.20;1.00;;;;;;5032706;28;20021;-61
2022/12/27 13:49:36;;;;;;;7.05;6.35;;;13.20;1.00;;;;;;5032942;28;20108;-61
2022/12/27 13:52:19;;;;;;;6.82;5.43;;;13.30;1.00;;;;;;5033931;28;20033;-61
2022/12/27 13:54:50;;;;;;;9.20;5.88;;;13.20;1.00;;;;;;5034482;28;20407;-61
2022/12/27 13:57:25;;;;;;;10.43;7.63;;;13.30;1.00;;;;;;5034013;28;20136;-61
2022/12/27 14:00:24;;;;;;;13.35;8.07;;;13.30;1.00;;;;;;5028466;28;20041;-61
2022/12/27 14:03:00;;;;;;;17.83;7.15;;;13.30;1.00;;;;;;5033362;28;20052;-61
2022/12/27 14:05:56;;;;;;;9.27;7.22;;;13.30;1.00;;;;;;5034077;28;20444;-61
2022/12/27 14:08:21;;;;;;;10.48;7.43;;;13.30;1.00;;;;;;5032454;28;20022;-61
2022/12/27 14:10:49;;;;;;;15.23;8.05;;;13.30;1.00;;;;;;5033970;28;20025;-61
2022/12/27 14:13:23;;;;;;;9.90;7.65;;;13.30;1.00;;;;;;5032310;28;20071;-61
2022/12/27 14:16:00;;;;;;;9.50;7.53;;;13.30;1.00;;;;;;5033148;28;20134;-61
2022/12/27 14:18:43;;;;;;;11.13;8.40;;;13.30;1.00;;;;;;5033534;28;20316;-61
2022/12/27 14:21:36;;;;;;;15.30;8.90;;;13.40;1.00;;;;;;5027734;28;20461;-61
2022/12/27 14:24:16;;;;;;;11.55;9.38;;;13.40;1.00;;;;;;5028069;28;20033;-61
2022/12/27 14:27:25;;;;;;;12.10;9.38;;;13.30;1.00;;;;;;5022914;28;20053;-61
2022/12/27 14:30:11;;;;;;;13.02;9.20;;;13.30;1.00;;;;;;5026731;28;20029;-61
2022/12/27 14:33:14;;;;;;;13.07;10.23;;;13.40;1.00;;;;;;5018917;28;20420;-61
2022/12/27 14:36:06;;;;;;;10.63;9.52;;;13.30;1.00;;;;;;5030956;28;20025;-61
2022/12/27 14:39:02;;;;;;;9.63;8.43;;;13.30;1.00;;;;;;5032901;28;20049;-61
2022/12/27 14:41:55;;;;;;;11.88;9.38;;;13.40;1.00;;;;;;5029075;28;20037;-61
2022/12/27 14:44:55;;;;;;;11.68;8.18;;;13.30;1.00;;;;;;5032433;28;20463;-61
2022/12/27 14:47:39;;;;;;;12.45;9.38;;;13.30;1.00;;;;;;5030061;28;20025;-61
2022/12/27 14:50:42;;;;;;;10.27;8.63;;;13.30;1.00;;;;;;5033015;28;20030;-60
2022/12/27 14:53:29;;;;;;;10.75;9.63;;;13.30;1.00;;;;;;5020771;28;20025;-60
2022/12/27 14:55:57;;;;;;;14.40;9.73;;;13.20;1.00;;;;;;5029704;28;20026;-61
2022/12/27 14:58:40;;;;;;;28.98;23.98;;;13.30;1.00;;;;;;5032312;28;20391;-61
2022/12/27 15:01:38;;;;;;;30.33;27.20;;;13.10;1.00;;;;;;5030289;28;20323;-61
2022/12/27 15:04:31;;;;;;;34.20;30.38;;;13.10;1.00;;;;;;5026637;28;20029;-61
2022/12/27 15:07:13;;;;;;;37.17;33.13;;;13.00;1.00;;;;;;5013570;28;20040;-61
2022/12/27 15:09:59;;;;;;;37.45;32.22;;;12.90;1.00;;;;;;5029099;28;20021;-60
2022/12/27 15:12:56;;;;;;;38.47;34.53;;;13.00;1.00;;;;;;5023732;28;20026;-60
2022/12/27 15:15:31;;;;;;;39.67;34.97;;;12.80;1.00;;;;;;5020098;28;20052;-61
2022/12/27 15:18:02;;;;;;;;;;;12.70;1.00;;;;;;5031244;28;20052;-61
2022/12/27 15:20:57;;;;;;;38.17;33.38;;;12.60;1.00;;;;;;5036409;28;19932;-61
2022/12/27 15:23:32;;;;;;;39.28;34.97;;;12.50;1.00;;;;;;5036453;28;20129;-60
2022/12/27 15:26:38;;;;;;;40.42;35.15;;;12.40;1.00;;;;;;5031558;28;20057;-60
2022/12/27 15:29:43;;;;;;;40.80;36.38;;;12.40;1.00;;;;;;5008906;28;20034;-61